createdAt,value
2023-04-25T00:01:15.900Z,7.25
2023-04-25T00:02:48.152Z,6.00
2023-04-25T00:04:23.293Z,6.43
2023-04-25T00:05:57.824Z,5.65
2023-04-25T00:07:32.238Z,5.57
2023-04-25T00:09:08.463Z,7.53
2023-04-25T00:10:41.872Z,6.72
2023-04-25T00:12:15.079Z,6.82
2023-04-25T00:13:50.906Z,6.63
2023-04-25T00:15:26.383Z,6.60
2023-04-25T00:17:00.302Z,6.72
2023-04-25T00:18:34.329Z,5.82
2023-04-25T00:20:10.688Z,6.05
2023-04-25T00:21:46.468Z,6.13
2023-04-25T00:23:19.853Z,6.15
2023-04-25T00:24:54.434Z,5.38
2023-04-25T00:26:27.801Z,5.85
2023-04-25T00:28:00.955Z,6.88
2023-04-25T00:29:35.695Z,6.40
2023-04-25T00:31:09.582Z,6.13
2023-04-25T00:32:43.017Z,6.15
2023-04-25T00:34:16.158Z,6.20
2023-04-25T00:35:49.608Z,6.25
2023-04-25T00:37:23.200Z,6.80
2023-04-25T00:38:56.887Z,6.55
2023-04-25T00:40:30.576Z,6.70
2023-04-25T00:42:05.130Z,5.03
2023-04-25T00:43:38.575Z,5.90
2023-04-25T00:45:16.005Z,5.53
2023-04-25T00:46:49.941Z,5.65
2023-04-25T00:48:24.822Z,5.97
2023-04-25T00:49:57.981Z,5.88
2023-04-25T00:51:31.779Z,5.95
2023-04-25T00:53:04.498Z,5.88
2023-04-25T00:54:37.925Z,6.53
2023-04-25T00:56:11.206Z,6.60
2023-04-25T00:57:45.000Z,6.22
2023-04-25T00:59:19.214Z,6.28
2023-04-25T01:00:54.133Z,6.10
2023-04-25T01:02:29.524Z,5.82
2023-04-25T01:04:04.023Z,6.25
2023-04-25T01:05:36.242Z,6.53
2023-04-25T01:07:09.493Z,6.70
2023-04-25T01:08:42.650Z,5.85
2023-04-25T01:10:16.716Z,6.50
2023-04-25T01:11:50.430Z,5.68
2023-04-25T01:13:23.640Z,6.18
2023-04-25T01:14:57.611Z,6.07
2023-04-25T01:16:31.257Z,6.22
2023-04-25T01:18:05.501Z,6.25
2023-04-25T01:19:38.984Z,6.15
2023-04-25T01:21:14.826Z,6.13
2023-04-25T01:22:48.676Z,5.88
2023-04-25T01:24:21.811Z,6.32
2023-04-25T01:25:55.783Z,7.28
2023-04-25T01:27:29.515Z,7.30
2023-04-25T01:29:03.878Z,9.07
2023-04-25T01:30:37.691Z,11.00
2023-04-25T01:32:12.259Z,9.38
2023-04-25T01:33:46.486Z,9.15
2023-04-25T01:35:19.945Z,9.23
2023-04-25T01:36:55.304Z,8.50
2023-04-25T01:38:29.335Z,9.38
2023-04-25T01:40:02.797Z,8.77
2023-04-25T01:41:35.724Z,7.95
2023-04-25T01:43:11.974Z,7.43
2023-04-25T01:44:45.373Z,7.47
2023-04-25T01:46:19.171Z,6.90
2023-04-25T01:47:52.616Z,7.35
2023-04-25T01:49:25.957Z,6.63
2023-04-25T01:50:59.410Z,6.75
2023-04-25T01:52:34.049Z,7.80
2023-04-25T01:54:08.418Z,7.88
2023-04-25T01:55:41.597Z,8.50
2023-04-25T01:57:18.099Z,7.43
2023-04-25T01:58:51.881Z,6.32
2023-04-25T02:00:28.085Z,7.35
2023-04-25T02:02:04.637Z,6.97
2023-04-25T02:03:39.611Z,6.32
2023-04-25T02:05:17.454Z,5.82
2023-04-25T02:06:51.216Z,4.60
2023-04-25T02:08:27.040Z,5.47
2023-04-25T02:10:02.289Z,5.82
2023-04-25T02:11:39.622Z,5.53
2023-04-25T02:13:36.081Z,5.68
2023-04-25T02:15:18.524Z,5.32
2023-04-25T02:16:58.449Z,5.25
2023-04-25T02:18:32.348Z,5.95
2023-04-25T02:20:07.362Z,5.70
2023-04-25T02:21:40.639Z,5.65
2023-04-25T02:23:12.929Z,6.63
2023-04-25T02:24:49.017Z,6.20
2023-04-25T02:26:22.309Z,6.32
2023-04-25T02:27:55.782Z,8.85
2023-04-25T02:29:28.059Z,7.68
2023-04-25T02:31:01.424Z,32.53
2023-04-25T02:32:35.383Z,7.95
2023-04-25T02:34:09.772Z,7.15
2023-04-25T02:35:44.697Z,6.38
2023-04-25T02:37:23.762Z,6.20
2023-04-25T02:38:57.128Z,5.22
2023-04-25T02:40:30.917Z,6.30
2023-04-25T02:42:04.250Z,6.70
2023-04-25T02:43:37.408Z,6.43
2023-04-25T02:45:11.767Z,10.60
2023-04-25T02:46:44.155Z,28.73
2023-04-25T02:48:17.615Z,8.25
2023-04-25T02:49:51.004Z,6.68
2023-04-25T02:51:24.625Z,6.35
2023-04-25T02:52:57.864Z,20.83
2023-04-25T02:54:36.201Z,10.90
2023-04-25T02:56:11.712Z,5.93
2023-04-25T02:57:45.121Z,4.80
2023-04-25T02:59:21.268Z,4.68
2023-04-25T03:00:54.527Z,4.93
2023-04-25T03:02:27.796Z,6.18
2023-04-25T03:04:01.360Z,5.35
2023-04-25T03:05:33.647Z,4.95
2023-04-25T03:07:07.143Z,4.88
2023-04-25T03:08:39.218Z,5.35
2023-04-25T03:10:12.873Z,5.07
2023-04-25T03:11:48.646Z,4.85
2023-04-25T03:13:21.941Z,5.43
2023-04-25T03:14:55.006Z,5.55
2023-04-25T03:16:27.700Z,6.22
2023-04-25T03:18:00.988Z,5.10
2023-04-25T03:19:33.478Z,6.43
2023-04-25T03:21:06.938Z,4.88
2023-04-25T03:22:40.603Z,5.25
2023-04-25T03:24:14.604Z,5.00
2023-04-25T03:25:48.100Z,4.93
2023-04-25T03:27:22.650Z,4.57
2023-04-25T03:28:56.081Z,5.22
2023-04-25T03:30:29.328Z,6.20
2023-04-25T03:32:02.967Z,6.80
2023-04-25T03:33:36.187Z,10.43
2023-04-25T03:35:10.050Z,5.45
2023-04-25T03:36:43.272Z,5.00
2023-04-25T03:38:17.729Z,4.63
2023-04-25T03:39:52.018Z,3.95
2023-04-25T03:41:24.729Z,5.22
2023-04-25T03:43:08.349Z,5.50
2023-04-25T03:44:42.550Z,5.65
2023-04-25T03:46:16.059Z,5.55
2023-04-25T03:47:49.778Z,6.28
2023-04-25T03:49:23.152Z,5.60
2023-04-25T03:51:05.968Z,5.20
2023-04-25T03:52:41.653Z,5.28
2023-04-25T03:54:15.501Z,4.75
2023-04-25T03:56:01.495Z,4.60
2023-04-25T03:57:38.774Z,4.50
2023-04-25T03:59:13.274Z,4.32
2023-04-25T04:00:46.820Z,3.85
2023-04-25T04:02:20.599Z,4.45
2023-04-25T04:03:54.608Z,4.35
2023-04-25T04:05:28.472Z,5.45
2023-04-25T04:07:03.554Z,4.55
2023-04-25T04:08:40.812Z,4.38
2023-04-25T04:10:15.876Z,4.82
2023-04-25T04:11:49.035Z,4.57
2023-04-25T04:13:22.703Z,5.00
2023-04-25T04:14:57.285Z,4.95
2023-04-25T04:16:32.522Z,5.10
2023-04-25T04:18:07.363Z,5.15
2023-04-25T04:19:41.180Z,5.45
2023-04-25T04:21:21.326Z,4.75
2023-04-25T04:22:54.745Z,4.30
2023-04-25T04:24:28.733Z,4.63
2023-04-25T04:26:08.228Z,4.88
2023-04-25T04:28:14.388Z,4.60
2023-04-25T04:29:59.272Z,4.85
2023-04-25T04:31:43.013Z,4.00
2023-04-25T04:33:20.030Z,4.60
2023-04-25T04:34:57.046Z,4.95
2023-04-25T04:36:32.003Z,4.32
2023-04-25T04:38:05.874Z,4.95
2023-04-25T04:39:42.007Z,4.78
2023-04-25T04:41:31.300Z,4.15
2023-04-25T04:43:34.758Z,4.68
2023-04-25T04:45:37.834Z,6.53
2023-04-25T04:47:15.254Z,7.57
2023-04-25T04:49:08.822Z,7.55
2023-04-25T04:50:53.554Z,8.00
2023-04-25T04:52:53.057Z,7.82
2023-04-25T04:54:49.565Z,8.32
2023-04-25T04:56:45.742Z,9.55
2023-04-25T04:58:30.650Z,6.90
2023-04-25T05:00:33.127Z,10.45
2023-04-25T05:02:27.393Z,18.30
2023-04-25T05:04:32.945Z,20.85
2023-04-25T05:06:46.883Z,19.30
2023-04-25T05:08:54.267Z,15.00
2023-04-25T05:10:28.055Z,15.18
2023-04-25T05:12:10.776Z,16.48
2023-04-25T05:14:02.719Z,12.02
2023-04-25T05:15:48.105Z,11.60
2023-04-25T05:17:21.241Z,8.52
2023-04-25T05:19:21.971Z,9.15
2023-04-25T05:21:28.468Z,8.48
2023-04-25T05:23:13.276Z,7.90
2023-04-25T05:24:55.761Z,6.50
2023-04-25T05:27:04.924Z,5.60
2023-04-25T05:28:52.090Z,4.90
2023-04-25T05:30:43.275Z,5.20
2023-04-25T05:32:29.277Z,6.05
2023-04-25T05:34:03.089Z,5.50
2023-04-25T05:35:48.830Z,6.95
2023-04-25T05:37:22.046Z,5.68
2023-04-25T05:39:21.701Z,6.60
2023-04-25T05:41:21.514Z,7.22
2023-04-25T05:43:13.410Z,6.38
2023-04-25T05:45:09.858Z,7.55
2023-04-25T05:47:05.716Z,6.50
2023-04-25T05:49:06.207Z,6.07
2023-04-25T05:51:04.399Z,5.07
2023-04-25T05:52:53.758Z,5.68
2023-04-25T05:54:42.725Z,5.32
2023-04-25T05:56:16.050Z,5.68
2023-04-25T05:57:51.344Z,5.68
2023-04-25T05:59:25.030Z,6.65
2023-04-25T06:00:59.225Z,5.25
2023-04-25T06:02:32.909Z,6.00
2023-04-25T06:04:06.722Z,5.15
2023-04-25T06:05:40.461Z,6.20
2023-04-25T06:07:15.358Z,4.68
2023-04-25T06:08:48.843Z,4.57
2023-04-25T06:10:22.275Z,4.78
2023-04-25T06:11:55.462Z,4.25
2023-04-25T06:13:29.032Z,4.38
2023-04-25T06:15:08.188Z,3.97
2023-04-25T06:16:46.748Z,4.38
2023-04-25T06:18:20.483Z,4.07
2023-04-25T06:19:53.748Z,4.15
2023-04-25T06:21:28.578Z,4.07
2023-04-25T06:23:03.374Z,3.83
2023-04-25T06:25:01.292Z,4.82
2023-04-25T06:26:35.392Z,4.70
2023-04-25T06:28:09.951Z,4.45
2023-04-25T06:29:44.405Z,3.95
2023-04-25T06:31:17.717Z,3.60
2023-04-25T06:32:53.124Z,3.05
2023-04-25T06:34:26.514Z,2.67
2023-04-25T06:35:59.865Z,2.85
2023-04-25T06:37:34.451Z,2.92
2023-04-25T06:39:10.289Z,2.70
2023-04-25T06:40:43.423Z,2.28
2023-04-25T06:42:17.207Z,2.67
2023-04-25T06:43:59.343Z,2.38
2023-04-25T06:45:48.522Z,2.28
2023-04-25T06:47:22.187Z,2.15
2023-04-25T06:48:56.209Z,2.83
2023-04-25T06:50:29.421Z,1.90
2023-04-25T06:52:03.052Z,2.13
2023-04-25T06:53:36.219Z,2.05
2023-04-25T06:55:13.621Z,1.92
2023-04-25T06:57:05.741Z,2.10
2023-04-25T06:58:40.462Z,1.77
2023-04-25T07:00:21.778Z,2.05
2023-04-25T07:01:55.120Z,1.67
2023-04-25T07:03:32.645Z,1.90
2023-04-25T07:05:10.919Z,1.60
2023-04-25T07:06:44.277Z,1.70
2023-04-25T07:08:18.562Z,1.73
2023-04-25T07:09:52.015Z,1.10
2023-04-25T07:11:26.985Z,1.13
2023-04-25T07:13:00.159Z,1.40
2023-04-25T07:14:33.702Z,1.90
2023-04-25T07:16:08.600Z,1.10
2023-04-25T07:17:43.106Z,1.52
2023-04-25T07:19:16.269Z,1.40
2023-04-25T07:20:49.452Z,2.65
2023-04-25T07:22:23.024Z,1.10
2023-04-25T07:23:56.692Z,1.38
2023-04-25T07:25:36.179Z,1.30
2023-04-25T07:27:11.322Z,1.23
2023-04-25T07:28:59.465Z,1.10
2023-04-25T07:30:32.838Z,1.10
2023-04-25T07:32:11.462Z,1.00
2023-04-25T07:33:44.613Z,1.45
2023-04-25T07:35:19.058Z,1.10
2023-04-25T07:36:52.591Z,1.00
2023-04-25T07:38:26.655Z,1.30
2023-04-25T07:40:01.085Z,1.15
2023-04-25T07:41:36.237Z,1.10
2023-04-25T07:43:13.397Z,1.65
2023-04-25T07:44:54.627Z,1.23
2023-04-25T07:46:28.996Z,1.20
2023-04-25T07:48:02.843Z,1.10
2023-04-25T07:49:38.777Z,1.13
2023-04-25T07:53:04.369Z,0.98
2023-04-25T07:54:57.093Z,0.82
2023-04-25T07:56:49.573Z,0.80
2023-04-25T07:58:28.037Z,1.00
2023-04-25T08:00:10.359Z,1.42
2023-04-25T08:01:51.460Z,1.33
2023-04-25T08:03:26.937Z,1.00
2023-04-25T08:05:01.991Z,1.13
2023-04-25T08:06:36.333Z,1.20
2023-04-25T08:08:21.140Z,1.02
2023-04-25T08:09:54.830Z,1.20
2023-04-25T08:11:36.671Z,1.23
2023-04-25T08:13:10.064Z,1.35
2023-04-25T08:14:45.569Z,1.38
2023-04-25T08:16:19.238Z,1.15
2023-04-25T08:17:54.145Z,1.30
2023-04-25T08:19:27.658Z,1.13
2023-04-25T08:21:01.561Z,1.42
2023-04-25T08:22:35.091Z,1.30
2023-04-25T08:24:27.585Z,1.30
2023-04-25T08:26:01.305Z,1.02
2023-04-25T08:27:35.873Z,1.30
2023-04-25T08:29:09.177Z,2.05
2023-04-25T08:30:47.770Z,1.42
2023-04-25T08:32:23.114Z,1.00
2023-04-25T08:34:16.539Z,1.00
2023-04-25T08:35:52.682Z,1.02
2023-04-25T08:37:26.793Z,1.58
2023-04-25T08:39:08.215Z,1.55
2023-04-25T08:40:52.654Z,1.40
2023-04-25T08:42:30.058Z,1.20
2023-04-25T08:44:05.862Z,1.00
2023-04-25T08:45:41.617Z,1.25
2023-04-25T08:47:17.434Z,1.33
2023-04-25T08:49:03.845Z,1.02
2023-04-25T08:50:37.262Z,0.90
2023-04-25T08:52:12.345Z,1.13
2023-04-25T08:53:53.578Z,0.82
2023-04-25T08:55:28.802Z,2.35
2023-04-25T08:57:06.358Z,1.50
2023-04-25T08:58:40.554Z,2.50
2023-04-25T09:00:15.261Z,1.73
2023-04-25T09:01:51.725Z,6.43
2023-04-25T09:03:30.146Z,3.78
2023-04-25T09:05:05.259Z,3.17
2023-04-25T09:06:38.402Z,3.05
2023-04-25T09:08:12.099Z,3.67
2023-04-25T09:09:45.278Z,2.97
2023-04-25T09:11:20.483Z,2.92
2023-04-25T09:13:06.147Z,2.35
2023-04-25T09:15:05.430Z,2.00
2023-04-25T09:17:16.631Z,1.92
2023-04-25T09:18:54.981Z,3.03
2023-04-25T09:20:29.413Z,2.50
2023-04-25T09:22:06.235Z,3.08
2023-04-25T09:23:43.970Z,1.98
2023-04-25T09:25:17.603Z,1.42
2023-04-25T09:26:51.863Z,1.67
2023-04-25T09:28:30.080Z,1.50
2023-04-25T09:30:06.344Z,1.60
2023-04-25T09:32:18.703Z,1.52
2023-04-25T09:33:54.599Z,1.48
2023-04-25T09:35:30.169Z,1.40
2023-04-25T09:37:06.859Z,1.58
2023-04-25T09:39:02.890Z,1.98
2023-04-25T09:40:42.802Z,2.35
2023-04-25T09:42:26.009Z,2.83
2023-04-25T09:44:00.221Z,2.90
2023-04-25T09:45:47.028Z,2.92
2023-04-25T09:47:24.321Z,3.55
2023-04-25T09:48:57.614Z,1.90
2023-04-25T09:50:42.508Z,1.33
2023-04-25T09:52:23.266Z,1.25
2023-04-25T09:54:16.137Z,1.15
2023-04-25T09:55:54.689Z,2.00
2023-04-25T09:57:28.115Z,1.83
2023-04-25T09:59:05.321Z,1.30
2023-04-25T10:00:41.258Z,1.00
2023-04-25T10:02:29.637Z,1.05
2023-04-25T10:04:13.231Z,1.20
2023-04-25T10:05:55.256Z,0.93
2023-04-25T10:07:33.282Z,0.90
2023-04-25T10:09:09.599Z,0.85
2023-04-25T10:10:44.103Z,1.45
2023-04-25T10:12:18.531Z,0.93
2023-04-25T10:13:53.174Z,0.90
2023-04-25T10:15:27.194Z,0.88
2023-04-25T10:17:00.858Z,0.88
2023-04-25T10:18:34.987Z,0.70
2023-04-25T10:20:12.263Z,0.80
2023-04-25T10:21:53.412Z,0.60
2023-04-25T10:23:26.982Z,0.85
2023-04-25T10:25:01.115Z,1.08
2023-04-25T10:26:34.946Z,0.80
2023-04-25T10:28:08.430Z,1.17
2023-04-25T10:29:45.256Z,0.65
2023-04-25T10:31:18.678Z,0.60
2023-04-25T10:32:52.927Z,0.75
2023-04-25T10:34:40.629Z,0.90
2023-04-25T10:36:15.958Z,0.57
2023-04-25T10:38:06.430Z,0.70
2023-04-25T10:39:42.743Z,0.70
2023-04-25T10:41:16.378Z,0.90
2023-04-25T10:42:49.588Z,0.73
2023-04-25T10:44:23.359Z,0.68
2023-04-25T10:45:56.521Z,0.60
2023-04-25T10:47:37.436Z,0.70
2023-04-25T10:49:12.082Z,0.70
2023-04-25T10:50:46.744Z,0.90
2023-04-25T10:52:26.540Z,0.90
2023-04-25T10:54:02.642Z,0.60
2023-04-25T10:55:53.826Z,0.70
2023-04-25T10:57:41.935Z,0.73
2023-04-25T10:59:16.532Z,0.70
2023-04-25T11:02:29.446Z,1.58
2023-04-25T11:04:03.647Z,1.40
2023-04-25T11:05:50.996Z,1.08
2023-04-25T11:07:36.660Z,0.88
2023-04-25T11:09:15.117Z,1.00
2023-04-25T11:10:50.311Z,0.73
2023-04-25T11:12:27.062Z,0.93
2023-04-25T11:14:00.843Z,1.40
2023-04-25T11:15:33.992Z,1.42
2023-04-25T11:17:07.875Z,1.83
2023-04-25T11:18:43.464Z,2.33
2023-04-25T11:20:17.038Z,1.30
2023-04-25T11:21:50.272Z,1.33
2023-04-25T11:23:23.609Z,1.15
2023-04-25T11:24:58.113Z,1.17
2023-04-25T11:26:32.874Z,1.10
2023-04-25T11:28:06.477Z,1.27
2023-04-25T11:29:39.758Z,1.30
2023-04-25T11:31:12.920Z,1.42
2023-04-25T11:32:46.787Z,1.58
2023-04-25T11:34:20.172Z,1.48
2023-04-25T11:35:55.851Z,1.65
2023-04-25T11:37:29.013Z,2.00
2023-04-25T11:39:03.037Z,2.00
2023-04-25T11:40:37.955Z,1.48
2023-04-25T11:42:13.799Z,1.13
2023-04-25T11:43:47.293Z,1.60
2023-04-25T11:45:21.216Z,2.08
2023-04-25T11:46:54.351Z,1.88
2023-04-25T11:48:27.631Z,1.70
2023-04-25T11:50:01.672Z,1.67
2023-04-25T11:51:41.303Z,1.83
2023-04-25T11:53:14.554Z,1.60
2023-04-25T11:54:47.821Z,1.60
2023-04-25T11:56:22.759Z,1.88
2023-04-25T11:57:56.293Z,1.80
2023-04-25T11:59:29.426Z,2.63
2023-04-25T12:01:04.138Z,2.30
2023-04-25T12:02:37.847Z,2.38
2023-04-25T12:04:15.964Z,1.67
2023-04-25T12:05:49.355Z,1.90
2023-04-25T12:07:22.802Z,2.13
2023-04-25T12:09:04.557Z,2.28
2023-04-25T12:10:40.185Z,2.15
2023-04-25T12:12:14.677Z,2.70
2023-04-25T12:13:47.969Z,3.00
2023-04-25T12:15:26.204Z,3.42
2023-04-25T12:17:01.435Z,2.75
2023-04-25T12:18:38.229Z,3.70
2023-04-25T12:20:14.479Z,3.30
2023-04-25T12:21:57.274Z,2.67
2023-04-25T12:23:32.229Z,2.22
2023-04-25T12:25:06.174Z,4.80
2023-04-25T12:26:53.493Z,3.20
2023-04-25T12:28:29.099Z,2.97
2023-04-25T12:30:03.002Z,3.05
2023-04-25T12:31:36.245Z,3.08
2023-04-25T12:33:09.583Z,3.78
2023-04-25T12:34:42.669Z,2.35
2023-04-25T12:36:18.270Z,2.45
2023-04-25T12:37:51.343Z,4.00
2023-04-25T12:39:27.267Z,1.83
2023-04-25T12:41:00.913Z,2.45
2023-04-25T12:42:34.593Z,2.33
2023-04-25T12:44:09.083Z,2.20
2023-04-25T12:45:42.808Z,1.88
2023-04-25T12:47:16.371Z,2.30
2023-04-25T12:48:50.355Z,2.90
2023-04-25T12:50:25.989Z,3.97
2023-04-25T12:51:59.499Z,2.22
2023-04-25T12:53:33.898Z,2.35
2023-04-25T12:55:09.352Z,1.15
2023-04-25T12:56:43.266Z,2.10
2023-04-25T12:58:16.666Z,1.13
2023-04-25T12:59:51.190Z,1.33
2023-04-25T13:01:25.401Z,1.30
2023-04-25T13:02:58.831Z,1.00
2023-04-25T13:04:32.470Z,0.90
2023-04-25T13:06:06.159Z,1.20
2023-04-25T13:07:39.746Z,0.80
2023-04-25T13:09:13.887Z,0.88
2023-04-25T13:10:47.310Z,1.02
2023-04-25T13:12:20.402Z,1.15
2023-04-25T13:13:54.218Z,0.98
2023-04-25T13:15:29.257Z,0.80
2023-04-25T13:17:02.546Z,0.90
2023-04-25T13:18:36.063Z,1.00
2023-04-25T13:20:11.273Z,1.02
2023-04-25T13:21:44.346Z,0.98
2023-04-25T13:23:17.704Z,0.98
2023-04-25T13:24:50.806Z,1.00
2023-04-25T13:26:24.473Z,0.90
2023-04-25T13:27:57.621Z,1.13
2023-04-25T13:29:30.803Z,1.17
2023-04-25T13:31:05.321Z,1.90
2023-04-25T13:32:39.646Z,1.60
2023-04-25T13:34:13.660Z,1.02
2023-04-25T13:35:47.942Z,1.50
2023-04-25T13:37:21.128Z,1.17
2023-04-25T13:38:54.798Z,1.00
2023-04-25T13:40:28.921Z,1.15
2023-04-25T13:42:02.892Z,1.30
2023-04-25T13:43:36.076Z,1.00
2023-04-25T13:45:11.577Z,1.42
2023-04-25T13:46:47.810Z,0.90
2023-04-25T13:48:21.937Z,0.43
2023-04-25T13:49:55.547Z,0.52
2023-04-25T13:51:30.989Z,1.20
2023-04-25T13:53:05.825Z,0.85
2023-04-25T13:54:39.072Z,1.08
2023-04-25T13:56:13.159Z,1.60
2023-04-25T13:57:47.428Z,1.17
2023-04-25T13:59:20.840Z,0.70
2023-04-25T14:00:54.844Z,1.23
2023-04-25T14:02:29.505Z,3.10
2023-04-25T14:04:03.214Z,3.97
2023-04-25T14:05:40.507Z,1.95
2023-04-25T14:07:13.818Z,1.25
2023-04-25T14:08:47.125Z,0.88
2023-04-25T14:10:20.880Z,1.25
2023-04-25T14:11:54.423Z,1.05
2023-04-25T14:13:27.743Z,1.00
2023-04-25T14:15:01.184Z,0.88
2023-04-25T14:16:34.603Z,0.73
2023-04-25T14:18:09.402Z,1.48
2023-04-25T14:19:44.428Z,1.45
2023-04-25T14:21:17.580Z,1.10
2023-04-25T14:22:51.122Z,1.10
2023-04-25T14:24:24.301Z,1.10
2023-04-25T14:25:57.675Z,0.70
2023-04-25T14:27:31.079Z,1.55
2023-04-25T14:29:04.835Z,0.85
2023-04-25T14:30:38.057Z,0.90
2023-04-25T14:32:11.992Z,1.80
2023-04-25T14:33:46.729Z,2.67
2023-04-25T14:35:21.242Z,5.40
2023-04-25T14:36:54.626Z,2.95
2023-04-25T14:38:28.104Z,1.20
2023-04-25T14:40:01.304Z,1.10
2023-04-25T14:41:35.266Z,1.58
2023-04-25T14:43:08.408Z,5.65
2023-04-25T14:44:41.721Z,4.70
2023-04-25T14:46:14.938Z,5.53
2023-04-25T14:47:48.539Z,4.00
2023-04-25T14:49:23.367Z,2.25
2023-04-25T14:50:57.515Z,0.70
2023-04-25T14:52:30.815Z,1.30
2023-04-25T14:54:04.567Z,1.35
2023-04-25T14:55:37.776Z,2.28
2023-04-25T14:57:11.055Z,2.05
2023-04-25T14:58:44.187Z,1.95
2023-04-25T15:00:18.332Z,2.83
2023-04-25T15:01:52.056Z,1.02
2023-04-25T15:03:25.602Z,1.60
2023-04-25T15:05:01.287Z,0.88
2023-04-25T15:06:35.063Z,1.08
2023-04-25T15:08:08.249Z,1.10
2023-04-25T15:09:41.534Z,0.90
2023-04-25T15:11:14.760Z,1.02
2023-04-25T15:12:48.567Z,1.27
2023-04-25T15:14:21.839Z,2.85
2023-04-25T15:15:55.307Z,1.20
2023-04-25T15:17:32.037Z,1.00
2023-04-25T15:19:06.652Z,1.02
2023-04-25T15:20:41.312Z,2.50
2023-04-25T15:22:14.564Z,2.75
2023-04-25T15:23:47.793Z,1.45
2023-04-25T15:25:21.412Z,1.10
2023-04-25T15:26:54.538Z,1.10
2023-04-25T15:28:27.933Z,1.92
2023-04-25T15:30:01.051Z,5.35
2023-04-25T15:31:34.507Z,5.15
2023-04-25T15:33:07.752Z,5.68
2023-04-25T15:34:41.013Z,4.72
2023-04-25T15:36:17.442Z,5.93
2023-04-25T15:37:51.917Z,4.28
2023-04-25T15:39:25.114Z,3.80
2023-04-25T15:40:58.347Z,4.18
2023-04-25T15:42:31.926Z,3.72
2023-04-25T15:44:05.609Z,3.47
2023-04-25T15:45:38.750Z,4.35
2023-04-25T15:47:12.118Z,1.88
2023-04-25T15:48:45.435Z,2.20
2023-04-25T15:50:18.931Z,2.83
2023-04-25T15:51:53.523Z,1.13
2023-04-25T15:53:26.813Z,1.50
2023-04-25T15:55:00.312Z,3.40
2023-04-25T15:56:34.453Z,1.50
2023-04-25T15:58:08.555Z,0.70
2023-04-25T15:59:42.613Z,0.82
2023-04-25T16:01:15.868Z,0.88
2023-04-25T16:02:50.370Z,0.77
2023-04-25T16:04:25.260Z,1.10
2023-04-25T16:05:58.975Z,0.90
2023-04-25T16:07:33.547Z,0.88
2023-04-25T16:09:08.761Z,1.52
2023-04-25T16:10:42.176Z,1.50
2023-04-25T16:12:15.420Z,2.40
2023-04-25T16:13:51.332Z,2.47
2023-04-25T16:15:25.435Z,2.70
2023-04-25T16:17:00.568Z,2.03
2023-04-25T16:18:33.832Z,2.90
2023-04-25T16:20:10.446Z,2.42
2023-04-25T16:21:44.807Z,2.30
2023-04-25T16:23:19.720Z,1.58
2023-04-25T16:24:53.551Z,2.90
2023-04-25T16:26:26.746Z,2.65
2023-04-25T16:28:00.057Z,2.55
2023-04-25T16:29:33.107Z,3.22
2023-04-25T16:31:07.089Z,4.13
2023-04-25T16:32:44.734Z,4.93
2023-04-25T16:34:19.071Z,2.13
2023-04-25T16:35:52.908Z,1.95
2023-04-25T16:37:26.385Z,1.42
2023-04-25T16:39:01.396Z,1.10
2023-04-25T16:40:35.128Z,0.70
2023-04-25T16:42:08.319Z,1.40
2023-04-25T16:43:41.845Z,1.40
2023-04-25T16:45:17.843Z,1.40
2023-04-25T16:46:51.266Z,3.63
2023-04-25T16:48:24.638Z,5.68
2023-04-25T16:49:57.875Z,4.80
2023-04-25T16:51:32.607Z,3.33
2023-04-25T16:53:05.826Z,3.53
2023-04-25T16:54:40.566Z,5.53
2023-04-25T16:56:15.538Z,4.50
2023-04-25T16:57:48.845Z,4.10
2023-04-25T16:59:22.034Z,3.20
2023-04-25T17:00:55.858Z,4.50
2023-04-25T17:02:29.340Z,4.57
2023-04-25T17:04:03.097Z,7.70
2023-04-25T17:05:37.290Z,6.75
2023-04-25T17:07:10.946Z,5.70
2023-04-25T17:08:44.191Z,5.00
2023-04-25T17:10:19.215Z,3.35
2023-04-25T17:11:52.772Z,1.75
2023-04-25T17:13:30.758Z,4.97
2023-04-25T17:15:04.702Z,3.80
2023-04-25T17:16:39.383Z,2.40
2023-04-25T17:18:12.718Z,2.05
2023-04-25T17:19:46.587Z,2.10
2023-04-25T17:21:20.052Z,1.70
2023-04-25T17:22:53.295Z,2.78
2023-04-25T17:24:26.647Z,2.10
2023-04-25T17:26:01.418Z,1.88
2023-04-25T17:27:35.225Z,2.35
2023-04-25T17:29:08.572Z,12.23
2023-04-25T17:30:42.624Z,30.63
2023-04-25T17:32:17.378Z,25.45
2023-04-25T17:33:51.036Z,15.52
2023-04-25T17:35:25.034Z,7.20
2023-04-25T17:36:58.338Z,6.18
2023-04-25T17:38:31.679Z,3.30
2023-04-25T17:40:07.159Z,2.45
2023-04-25T17:41:42.014Z,4.25
2023-04-25T17:43:15.240Z,4.05
2023-04-25T17:44:48.418Z,5.43
2023-04-25T17:46:21.670Z,2.65
2023-04-25T17:47:55.122Z,2.83
2023-04-25T17:49:28.378Z,5.70
2023-04-25T17:51:01.533Z,8.50
2023-04-25T17:52:34.836Z,6.70
2023-04-25T17:54:08.712Z,6.63
2023-04-25T17:55:43.775Z,4.75
2023-04-25T17:57:19.006Z,8.07
2023-04-25T17:58:53.094Z,8.13
2023-04-25T18:00:26.960Z,6.10
2023-04-25T18:02:01.087Z,6.45
2023-04-25T18:03:34.476Z,6.30
2023-04-25T18:05:10.047Z,6.10
2023-04-25T18:06:43.784Z,5.70
2023-04-25T18:08:16.976Z,5.55
2023-04-25T18:09:50.052Z,4.68
2023-04-25T18:11:23.293Z,4.13
2023-04-25T18:12:58.028Z,3.22
2023-04-25T18:14:34.154Z,2.15
2023-04-25T18:16:08.089Z,3.40
2023-04-25T18:17:41.394Z,9.98
2023-04-25T18:19:18.770Z,14.27
2023-04-25T18:20:52.165Z,14.15
2023-04-25T18:22:25.321Z,16.33
2023-04-25T18:23:58.835Z,14.75
2023-04-25T18:25:32.275Z,13.07
2023-04-25T18:27:06.339Z,15.27
2023-04-25T18:28:40.853Z,12.50
2023-04-25T18:30:14.703Z,8.13
2023-04-25T18:31:49.702Z,4.65
2023-04-25T18:33:23.429Z,3.10
2023-04-25T18:34:56.805Z,3.08
2023-04-25T18:36:30.128Z,3.13
2023-04-25T18:38:04.272Z,2.85
2023-04-25T18:39:37.705Z,2.50
2023-04-25T18:41:33.715Z,2.17
2023-04-25T18:43:09.907Z,2.65
2023-04-25T18:44:45.747Z,2.22
2023-04-25T18:46:22.506Z,2.65
2023-04-25T18:47:56.007Z,2.75
2023-04-25T18:49:28.577Z,2.20
2023-04-25T18:51:01.921Z,2.92
2023-04-25T18:52:35.138Z,2.80
2023-04-25T18:54:10.819Z,3.58
2023-04-25T18:55:44.726Z,3.42
2023-04-25T18:57:18.050Z,2.83
2023-04-25T18:58:52.199Z,3.35
2023-04-25T19:00:26.886Z,2.78
2023-04-25T19:02:01.953Z,2.30
2023-04-25T19:03:35.885Z,2.33
2023-04-25T19:05:10.443Z,2.70
2023-04-25T19:06:43.616Z,3.78
2023-04-25T19:08:17.532Z,4.53
2023-04-25T19:09:50.783Z,4.20
2023-04-25T19:11:24.480Z,4.93
2023-04-25T19:12:57.575Z,3.88
2023-04-25T19:14:32.598Z,4.07
2023-04-25T19:16:08.291Z,4.70
2023-04-25T19:17:42.244Z,1.60
2023-04-25T19:19:15.631Z,1.48
2023-04-25T19:20:49.224Z,1.13
2023-04-25T19:22:22.464Z,1.88
2023-04-25T19:23:56.548Z,1.55
2023-04-25T19:25:29.739Z,1.80
2023-04-25T19:27:03.615Z,0.95
2023-04-25T19:28:36.767Z,0.77
2023-04-25T19:30:11.006Z,0.90
2023-04-25T19:31:46.453Z,0.98
2023-04-25T19:34:54.085Z,1.27
2023-04-25T19:36:28.526Z,1.85
2023-04-25T19:38:01.809Z,2.63
2023-04-25T19:39:35.206Z,1.83
2023-04-25T19:41:08.489Z,1.67
2023-04-25T19:42:41.872Z,1.70
2023-04-25T19:44:15.081Z,1.15
2023-04-25T19:45:48.783Z,2.58
2023-04-25T19:47:24.066Z,2.05
2023-04-25T19:48:57.251Z,1.63
2023-04-25T19:50:30.647Z,1.55
2023-04-25T19:52:05.270Z,1.73
2023-04-25T19:53:38.452Z,1.83
2023-04-25T19:55:11.933Z,1.25
2023-04-25T19:56:45.859Z,1.20
2023-04-25T19:58:19.413Z,1.13
2023-04-25T19:59:52.627Z,1.15
2023-04-25T20:01:26.406Z,1.33
2023-04-25T20:03:01.227Z,1.67
2023-04-25T20:04:35.260Z,1.42
2023-04-25T20:06:08.505Z,1.85
2023-04-25T20:07:41.827Z,1.40
2023-04-25T20:09:16.413Z,2.08
2023-04-25T20:10:50.033Z,1.10
2023-04-25T20:12:23.234Z,1.15
2023-04-25T20:13:56.470Z,1.35
2023-04-25T20:15:29.586Z,1.33
2023-04-25T20:17:03.164Z,1.80
2023-04-25T20:18:37.857Z,1.90
2023-04-25T20:20:12.386Z,2.20
2023-04-25T20:21:45.801Z,2.35
2023-04-25T20:23:19.681Z,3.03
2023-04-25T20:24:53.455Z,1.70
2023-04-25T20:26:26.692Z,2.00
2023-04-25T20:27:59.877Z,1.85
2023-04-25T20:29:33.158Z,2.45
2023-04-25T20:31:06.857Z,16.85
2023-04-25T20:32:40.318Z,8.15
2023-04-25T20:34:14.815Z,8.35
2023-04-25T20:35:48.778Z,8.85
2023-04-25T20:37:22.340Z,7.82
2023-04-25T20:38:55.601Z,14.15
2023-04-25T20:40:28.798Z,10.63
2023-04-25T20:42:03.110Z,12.13
2023-04-25T20:43:37.622Z,8.02
2023-04-25T20:45:13.561Z,5.65
2023-04-25T20:46:46.799Z,6.00
2023-04-25T20:48:20.601Z,5.70
2023-04-25T20:49:55.183Z,5.15
2023-04-25T20:51:28.595Z,3.58
2023-04-25T20:53:01.712Z,3.78
2023-04-25T20:54:35.035Z,3.10
2023-04-25T20:56:08.208Z,2.45
2023-04-25T20:57:41.450Z,2.53
2023-04-25T20:59:14.546Z,2.25
2023-04-25T21:00:49.223Z,2.30
2023-04-25T21:02:22.751Z,2.90
2023-04-25T21:03:56.185Z,1.50
2023-04-25T21:05:31.660Z,2.47
2023-04-25T21:07:05.173Z,2.00
2023-04-25T21:08:38.322Z,2.10
2023-04-25T21:10:13.012Z,2.20
2023-04-25T21:11:46.898Z,1.95
2023-04-25T21:13:20.344Z,2.30
2023-04-25T21:14:53.492Z,2.22
2023-04-25T21:16:26.797Z,2.47
2023-04-25T21:18:00.003Z,2.28
2023-04-25T21:19:33.600Z,2.20
2023-04-25T21:21:08.714Z,2.20
2023-04-25T21:22:49.318Z,2.70